createdAt,value
2022-12-01T00:00:18.255Z,4.15
2022-12-01T00:02:47.308Z,4.18
2022-12-01T00:05:16.264Z,4.23
2022-12-01T00:07:44.858Z,4.26
2022-12-01T00:10:29.065Z,4.26
2022-12-01T00:13:00.615Z,4.27
2022-12-01T00:15:34.690Z,4.27
2022-12-01T00:18:08.343Z,4.27
2022-12-01T00:20:37.631Z,4.11
2022-12-01T00:23:06.324Z,4.07
2022-12-01T00:25:35.074Z,4.07
2022-12-01T00:28:03.867Z,4.17
2022-12-01T00:30:32.538Z,4.10
2022-12-01T00:33:01.193Z,4.17
2022-12-01T00:35:29.935Z,4.17
2022-12-01T00:37:58.576Z,4.13
2022-12-01T00:40:27.297Z,4.05
2022-12-01T00:42:55.827Z,4.05
2022-12-01T00:45:24.599Z,4.09
2022-12-01T00:47:53.232Z,4.18
2022-12-01T00:50:21.951Z,4.15
2022-12-01T00:52:50.813Z,4.18
2022-12-01T00:55:19.444Z,4.05
2022-12-01T00:57:48.057Z,4.11
2022-12-01T01:00:17.793Z,4.11
2022-12-01T01:02:46.553Z,4.10
2022-12-01T01:05:15.194Z,4.05
2022-12-01T01:07:43.871Z,4.06
2022-12-01T01:10:13.063Z,4.08
2022-12-01T01:12:41.619Z,4.04
2022-12-01T01:15:10.609Z,4.11
2022-12-01T01:17:39.298Z,4.11
2022-12-01T01:20:08.842Z,4.09
2022-12-01T01:22:37.463Z,4.16
2022-12-01T01:25:06.331Z,4.11
2022-12-01T01:27:35.869Z,4.13
2022-12-01T01:30:04.852Z,4.13
2022-12-01T01:32:33.450Z,4.01
2022-12-01T01:35:02.200Z,4.03
2022-12-01T01:37:30.810Z,4.19
2022-12-01T01:39:59.490Z,4.10
2022-12-01T01:42:28.051Z,4.06
2022-12-01T01:44:59.004Z,4.06
2022-12-01T01:47:30.617Z,4.14
2022-12-01T01:50:03.968Z,4.15
2022-12-01T01:52:33.231Z,4.15
2022-12-01T01:55:02.236Z,4.14
2022-12-01T01:57:33.719Z,4.14
2022-12-01T02:00:14.653Z,4.07
2022-12-01T02:02:45.263Z,4.14
2022-12-01T02:05:17.191Z,4.20
2022-12-01T02:07:47.533Z,4.16
2022-12-01T02:10:18.803Z,4.13
2022-12-01T02:13:08.454Z,4.12
2022-12-01T02:15:43.068Z,4.12
2022-12-01T02:18:31.283Z,4.09
2022-12-01T02:21:30.332Z,4.10
2022-12-01T02:24:16.841Z,4.22
2022-12-01T02:27:09.334Z,4.10
2022-12-01T02:29:57.670Z,4.06
2022-12-01T02:32:46.454Z,4.02
2022-12-01T02:35:35.726Z,4.01
2022-12-01T02:38:18.898Z,3.97
2022-12-01T02:41:11.618Z,3.97
2022-12-01T02:44:04.332Z,4.04
2022-12-01T02:46:36.008Z,4.03
2022-12-01T02:49:10.331Z,3.86
2022-12-01T02:51:41.354Z,3.93
2022-12-01T02:54:10.393Z,3.92
2022-12-01T02:56:39.182Z,3.98
2022-12-01T02:59:12.583Z,3.91
2022-12-01T03:02:06.742Z,3.91
2022-12-01T03:04:47.464Z,3.91
2022-12-01T03:07:37.671Z,3.87
2022-12-01T03:10:21.509Z,3.92
2022-12-01T03:13:05.048Z,3.86
2022-12-01T03:15:54.907Z,3.83
2022-12-01T03:18:35.514Z,3.80
2022-12-01T03:21:07.098Z,3.82
2022-12-01T03:23:48.162Z,3.82
2022-12-01T03:26:20.230Z,3.83
2022-12-01T03:28:51.906Z,3.79
2022-12-01T03:31:23.780Z,3.65
2022-12-01T03:33:55.594Z,3.81
2022-12-01T03:36:33.083Z,3.81
2022-12-01T03:39:04.898Z,3.76
2022-12-01T03:42:38.489Z,3.77
2022-12-01T03:44:25.662Z,3.76
2022-12-01T03:47:09.367Z,3.85
2022-12-01T03:49:39.603Z,3.79
2022-12-01T03:52:14.139Z,3.75
2022-12-01T03:54:57.802Z,3.78
2022-12-01T03:57:32.023Z,3.71
2022-12-01T04:00:01.377Z,3.70
2022-12-01T04:02:30.868Z,3.65
2022-12-01T04:04:59.640Z,3.70
2022-12-01T04:07:28.411Z,3.70
2022-12-01T04:09:57.536Z,3.73
2022-12-01T04:12:35.579Z,3.81
2022-12-01T04:15:12.105Z,3.81
2022-12-01T04:17:51.652Z,3.73
2022-12-01T04:20:21.901Z,3.74
2022-12-01T04:22:53.209Z,3.66
2022-12-01T04:25:25.062Z,3.53
2022-12-01T04:27:56.941Z,3.46
2022-12-01T04:30:28.256Z,3.44
2022-12-01T04:32:58.634Z,3.32
2022-12-01T04:35:27.208Z,3.24
2022-12-01T04:37:55.747Z,3.23
2022-12-01T04:40:24.417Z,3.24
2022-12-01T04:42:53.049Z,3.31
2022-12-01T04:45:21.724Z,3.29
2022-12-01T04:47:56.451Z,3.30
2022-12-01T04:50:23.006Z,3.26
2022-12-01T04:52:54.924Z,3.21
2022-12-01T04:55:25.625Z,3.33
2022-12-01T04:57:55.810Z,3.27
2022-12-01T05:00:24.517Z,3.35
2022-12-01T05:02:53.196Z,3.30
2022-12-01T05:05:21.902Z,3.21
2022-12-01T05:07:55.392Z,3.19
2022-12-01T05:10:25.830Z,3.24
2022-12-01T05:12:55.335Z,3.25
2022-12-01T05:15:24.085Z,3.20
2022-12-01T05:17:52.880Z,3.21
2022-12-01T05:20:42.450Z,3.22
2022-12-01T05:23:16.554Z,3.24
2022-12-01T05:25:42.628Z,3.12
2022-12-01T05:28:11.326Z,3.12
2022-12-01T05:30:40.820Z,3.17
2022-12-01T05:33:09.595Z,3.26
2022-12-01T05:35:38.440Z,3.14
2022-12-01T05:38:10.338Z,2.99
2022-12-01T05:40:39.703Z,3.01
2022-12-01T05:43:12.879Z,2.91
2022-12-01T05:45:41.635Z,2.98
2022-12-01T05:48:11.046Z,2.96
2022-12-01T05:50:40.904Z,3.01
2022-12-01T05:53:11.036Z,2.94
2022-12-01T05:55:39.750Z,3.03
2022-12-01T05:58:13.109Z,3.05
2022-12-01T06:00:45.607Z,3.01
2022-12-01T06:03:12.196Z,3.00
2022-12-01T06:05:41.299Z,3.07
2022-12-01T06:08:10.119Z,3.13
2022-12-01T06:10:38.714Z,3.11
2022-12-01T06:13:08.902Z,3.01
2022-12-01T06:15:37.589Z,3.04
2022-12-01T06:18:06.270Z,3.10
2022-12-01T06:20:34.884Z,3.00
2022-12-01T06:23:03.473Z,2.95
2022-12-01T06:25:32.094Z,3.12
2022-12-01T06:28:01.239Z,3.16
2022-12-01T06:30:34.065Z,3.24
2022-12-01T06:33:00.139Z,3.21
2022-12-01T06:35:28.799Z,3.38
2022-12-01T06:37:57.604Z,3.42
2022-12-01T06:40:26.429Z,3.44
2022-12-01T06:42:55.285Z,3.50
2022-12-01T06:45:23.850Z,3.49
2022-12-01T06:47:57.357Z,3.39
2022-12-01T06:50:26.680Z,3.45
2022-12-01T06:52:57.469Z,3.34
2022-12-01T06:55:26.487Z,3.44
2022-12-01T06:58:00.928Z,3.45
2022-12-01T07:00:29.981Z,3.65
2022-12-01T07:02:58.756Z,3.73
2022-12-01T07:05:27.904Z,3.80
2022-12-01T07:07:59.846Z,3.80
2022-12-01T07:13:33.142Z,3.74
2022-12-01T07:15:55.783Z,3.71
2022-12-01T07:18:24.338Z,3.78
2022-12-01T07:20:52.993Z,3.67
2022-12-01T07:23:23.131Z,3.62
2022-12-01T07:26:00.544Z,3.70
2022-12-01T07:28:49.653Z,3.69
2022-12-01T09:52:05.753Z,4.80
2022-12-01T10:01:40.062Z,4.73
2022-12-01T11:25:23.618Z,4.48
2022-12-01T11:28:02.893Z,4.33
2022-12-01T11:30:33.726Z,4.39
2022-12-01T11:33:05.194Z,4.43
2022-12-01T11:35:36.965Z,4.44
2022-12-01T11:40:57.649Z,4.27
2022-12-01T11:44:43.189Z,4.40
2022-12-01T11:46:46.275Z,4.34
2022-12-01T11:49:17.779Z,4.20
2022-12-01T11:51:46.900Z,4.27
2022-12-01T11:54:18.648Z,4.14
2022-12-01T11:56:56.181Z,4.21
2022-12-01T11:59:28.564Z,4.07
2022-12-01T12:02:24.368Z,4.07
2022-12-01T12:05:16.855Z,4.10
2022-12-01T12:08:07.753Z,3.89
2022-12-01T12:11:03.578Z,3.89
2022-12-01T12:13:41.368Z,3.82
2022-12-01T12:16:30.417Z,3.80
2022-12-01T12:19:12.298Z,3.86
2022-12-01T12:21:44.184Z,3.86
2022-12-01T12:24:30.706Z,3.90
2022-12-01T12:27:21.568Z,3.87
2022-12-01T12:30:21.663Z,3.71
2022-12-01T12:32:57.215Z,3.56
2022-12-01T12:35:28.849Z,3.54
2022-12-01T12:38:09.255Z,3.56
2022-12-01T12:40:59.143Z,3.71
2022-12-01T12:43:33.528Z,3.71
2022-12-01T12:46:14.266Z,3.62
2022-12-01T12:49:22.445Z,3.63
2022-12-01T12:51:43.396Z,3.72
2022-12-01T12:54:34.513Z,3.89
2022-12-01T12:57:06.239Z,3.98
2022-12-01T12:59:43.552Z,3.72
2022-12-01T13:02:21.038Z,3.53
2022-12-01T13:05:07.589Z,3.65
2022-12-01T13:07:42.275Z,3.67
2022-12-01T13:10:16.523Z,3.67
2022-12-01T13:15:19.239Z,3.37
2022-12-01T13:17:54.567Z,3.37
2022-12-01T13:20:28.878Z,3.49
2022-12-01T13:23:00.307Z,3.65
2022-12-01T13:25:38.553Z,3.64
2022-12-01T13:28:10.339Z,3.46
2022-12-01T13:30:40.901Z,3.56
2022-12-01T13:33:11.104Z,3.58
2022-12-01T13:35:40.717Z,3.50
2022-12-01T13:38:24.901Z,3.54
2022-12-01T13:44:25.872Z,3.49
2022-12-01T13:54:20.524Z,3.68
2022-12-01T14:06:58.753Z,3.12
2022-12-01T14:09:33.493Z,3.12
2022-12-01T14:12:04.432Z,3.03
2022-12-01T14:14:41.930Z,3.09
2022-12-01T14:17:30.218Z,2.95
2022-12-01T14:20:08.724Z,2.92
2022-12-01T14:22:47.783Z,2.89
2022-12-01T14:25:25.970Z,2.90
2022-12-01T14:28:00.806Z,3.03
2022-12-01T14:30:47.396Z,2.82
2022-12-01T14:33:40.662Z,3.13
2022-12-01T14:36:17.494Z,3.06
2022-12-01T14:39:07.385Z,2.66
2022-12-01T14:42:04.871Z,2.63
2022-12-01T14:44:45.781Z,2.50
2022-12-01T14:47:50.569Z,2.46
2022-12-01T14:50:10.203Z,2.41
2022-12-01T14:52:44.847Z,2.32
2022-12-01T14:55:22.441Z,2.23
2022-12-01T14:57:54.243Z,2.26
2022-12-01T15:00:25.649Z,2.23
2022-12-01T15:03:53.544Z,2.27
2022-12-01T15:20:20.085Z,2.49
2022-12-01T15:22:54.677Z,2.37
2022-12-01T15:28:21.059Z,2.53
2022-12-01T15:30:57.147Z,2.55
2022-12-01T15:46:15.540Z,2.62
2022-12-01T15:48:47.296Z,2.53
2022-12-01T15:51:24.389Z,2.44
2022-12-01T15:56:59.252Z,2.45
2022-12-01T16:06:01.248Z,2.39
2022-12-01T16:09:16.650Z,2.26
2022-12-01T16:12:05.926Z,2.08
2022-12-01T16:14:35.838Z,2.41
2022-12-01T16:17:06.939Z,2.44
2022-12-01T16:19:41.658Z,2.50
2022-12-01T16:22:16.275Z,2.36
2022-12-01T16:24:57.130Z,2.36
2022-12-01T16:27:28.470Z,2.36
2022-12-01T16:30:31.350Z,2.31
2022-12-01T19:07:42.185Z,2.54
2022-12-01T19:10:11.351Z,2.49
2022-12-01T19:12:44.420Z,2.34
2022-12-01T19:15:13.976Z,2.46
2022-12-01T19:17:44.276Z,2.43
2022-12-01T19:20:13.539Z,2.45
2022-12-01T19:47:28.667Z,2.53
2022-12-01T20:44:55.502Z,3.03
2022-12-01T21:05:13.538Z,3.58
2022-12-01T21:27:47.958Z,2.65
2022-12-01T21:30:22.251Z,2.51
2022-12-01T21:32:51.949Z,2.68
2022-12-01T21:35:22.834Z,2.68
2022-12-01T21:40:41.774Z,2.42
2022-12-01T21:43:25.053Z,2.68
2022-12-01T21:46:07.774Z,2.73
2022-12-01T21:48:47.011Z,2.85
2022-12-01T21:54:48.034Z,3.05
2022-12-01T22:00:09.833Z,3.09
2022-12-01T22:03:47.904Z,3.05
2022-12-01T22:16:09.380Z,2.87
2022-12-01T22:18:44.475Z,2.89
2022-12-01T22:21:24.929Z,2.94
2022-12-01T22:23:59.446Z,2.94
2022-12-01T22:26:28.346Z,2.65
2022-12-01T22:29:02.867Z,2.40
2022-12-01T22:31:35.732Z,2.58
2022-12-01T22:34:09.226Z,2.73
2022-12-01T22:36:37.936Z,2.76
2022-12-01T22:39:09.568Z,2.57
2022-12-01T22:41:40.469Z,2.41
2022-12-01T22:44:11.600Z,2.36
2022-12-01T22:46:40.538Z,2.59
2022-12-01T22:49:25.519Z,2.66
2022-12-01T22:52:17.115Z,2.78
2022-12-01T22:54:50.236Z,2.75
2022-12-01T22:57:32.237Z,2.55
2022-12-01T23:00:03.798Z,2.57
2022-12-01T23:02:34.913Z,2.45
2022-12-01T23:05:22.430Z,2.40
2022-12-01T23:07:51.962Z,2.48
2022-12-01T23:10:26.150Z,2.54
2022-12-01T23:12:57.552Z,2.65
2022-12-01T23:15:33.499Z,2.65
2022-12-01T23:18:23.318Z,2.53
2022-12-01T23:20:57.739Z,2.45
2022-12-01T23:23:34.701Z,2.51
2022-12-01T23:26:04.777Z,2.57
2022-12-01T23:28:35.329Z,2.51
2022-12-01T23:31:04.105Z,2.70
2022-12-01T23:33:36.739Z,2.93
2022-12-01T23:36:14.428Z,2.73
2022-12-01T23:38:46.545Z,2.64
2022-12-01T23:41:39.100Z,2.72
2022-12-01T23:44:20.242Z,2.49
2022-12-01T23:46:54.769Z,2.21
2022-12-01T23:49:26.665Z,2.55
2022-12-01T23:51:58.111Z,2.65
2022-12-01T23:54:30.007Z,2.46
2022-12-01T23:57:01.984Z,2.63
2022-12-01T23:59:32.661Z,2.68
